Time;durP1;ratioP1;P1;durP2;ratioP2;P2;SDS_P1;SDS_P2;PMS_P1;PMS_P2;Temp;Humidity;BMP_temperature;BMP_pressure;BME280_temperature;BME280_humidity;BME280_pressure;Samples;Min_cycle;Max_cycle;Signal;HPM_P1;HPM_P2
2022/05/28 00:00:10;;;;;;;;;;;;;;;;;;350191;28;1032;-73
2022/05/28 00:00:20;;;;;;;;;;;;;;;;;;348832;28;1611;-73
2022/05/28 00:00:30;;;;;;;;;;;;;;;;;;350184;28;1024;-73
2022/05/28 00:00:40;;;;;;;;;;;;;;;;;;349457;28;1603;-72
2022/05/28 00:00:52;;;;;;;;;;;;;;;;;;350105;28;968;-73
2022/05/28 00:01:03;;;;;;;;;;;;;;;;;;349437;28;1541;-72
2022/05/28 00:01:14;;;;;;;;;;;;;;;;;;348883;28;940;-73
2022/05/28 00:01:25;;;;;;;;;;;;;;;;;;348764;28;1023;-73
2022/05/28 00:01:35;;;;;;;;;;;;;;;;;;348844;28;841;-73
2022/05/28 00:01:46;;;;;;;;;;;;;;;;;;348747;28;1008;-72
2022/05/28 00:01:56;;;;;;;;;;;;;;;;;;348798;28;908;-73
2022/05/28 00:02:06;;;;;;;;;;;;;;;;;;348804;28;917;-73
2022/05/28 00:02:16;;;;;;;;;;;;;;;;;;349012;28;1552;-73
2022/05/28 00:02:27;;;;;;;;;;;;;;;;;;350191;28;924;-72
2022/05/28 00:02:38;;;;;;;;;;;;;;;;;;350296;28;849;-73
2022/05/28 00:02:48;;;;;;;;;;;;;;;;;;349967;28;1214;-73
2022/05/28 00:02:58;;;;;;;;;;;;;;;;;;350201;28;980;-72
2022/05/28 00:03:09;;;;;;;;;;;;;;;;;;350205;28;972;-73
2022/05/28 00:03:22;;;;;;;;;;;;;;;;;;350175;28;909;-73
2022/05/28 00:03:33;;;;;;;;;;;;;;;;;;350168;28;937;-73
2022/05/28 00:03:44;;;;;;;;;;;;;;;;;;350154;28;934;-73
2022/05/28 00:03:57;;;;;;;;;;;;;;;;;;350216;28;802;-73
2022/05/28 00:04:08;;;;;;;;;;;;;;;;;;350179;28;956;-73
2022/05/28 00:04:18;;;;;;;;;;;;;;;;;;350231;28;861;-73
2022/05/28 00:04:28;;;;;;;;;;;;;;;;;;350204;28;1095;-72
2022/05/28 00:04:39;;;;;;;;;;;;;;;;;;350144;28;920;-72
2022/05/28 00:04:49;;;;;;;;;;;;;;;;;;350170;28;783;-73
2022/05/28 00:04:59;;;;;;;;;;;;;;;;;;350234;28;951;-73
2022/05/28 00:05:09;;;;;;;;;;;;;;;;;;350123;28;1024;-73
2022/05/28 00:05:20;;;;;;;;;;;;;;;;;;350204;28;809;-73
2022/05/28 00:05:30;;;;;;;;;;;;;;;;;;350247;28;814;-72
2022/05/28 00:05:40;;;;;;;;;;;;;;;;;;349754;28;1678;-73
2022/05/28 00:05:51;;;;;;;;;;;;;;;;;;348732;28;1632;-72
2022/05/28 00:06:01;;;;;;;;;;;;;;;;;;348819;28;929;-73
2022/05/28 00:06:12;;;;;;;;;;;;;;;;;;348841;28;929;-73
2022/05/28 00:06:24;;;;;;;;;;;;;;;;;;348811;28;913;-73
2022/05/28 00:06:35;;;;;;;;;;;;;;;;;;348854;28;896;-73
2022/05/28 00:06:46;;;;;;;;;;;;;;;;;;348810;28;1603;-73
2022/05/28 00:06:57;;;;;;;;;;;;;;;;;;348824;28;1008;-73
2022/05/28 00:07:08;;;;;;;;;;;;;;;;;;348791;28;949;-73
2022/05/28 00:07:18;;;;;;;;;;;;;;;;;;348776;28;1004;-73
2022/05/28 00:07:28;;;;;;;;;;;;;;;;;;348707;28;1544;-72
2022/05/28 00:07:39;;;;;;;;;;;;;;;;;;349576;28;1771;-73
2022/05/28 00:07:49;;;;;;;;;;;;;;;;;;350158;28;936;-73
2022/05/28 00:08:00;;;;;;;;;;;;;;;;;;350166;28;932;-73
2022/05/28 00:08:10;;;;;;;;;;;;;;;;;;350218;28;853;-73
2022/05/28 00:08:20;;;;;;;;;;;;;;;;;;350218;28;928;-73
2022/05/28 00:08:31;;;;;;;;;;;;;;;;;;350143;28;1022;-73
2022/05/28 00:08:41;;;;;;;;;;;;;;;;;;350195;28;787;-73
2022/05/28 00:08:51;;;;;;;;;;;;;;;;;;350102;28;983;-73
2022/05/28 00:09:02;;;;;;;;;;;;;;;;;;350174;28;854;-73
2022/05/28 00:09:13;;;;;;;;;;;;;;;;;;350134;28;952;-73
2022/05/28 00:09:23;;;;;;;;;;;;;;;;;;350178;28;933;-73
2022/05/28 00:09:33;;;;;;;;;;;;;;;;;;350192;28;853;-73
2022/05/28 00:09:43;;;;;;;;;;;;;;;;;;350215;28;916;-73
2022/05/28 00:09:54;;;;;;;;;;;;;;;;;;350038;28;1076;-73
2022/05/28 00:10:04;;;;;;;;;;;;;;;;;;350183;28;850;-73
2022/05/28 00:10:15;;;;;;;;;;;;;;;;;;349811;28;1340;-73
2022/05/28 00:10:25;;;;;;;;;;;;;;;;;;350184;28;984;-73
2022/05/28 00:10:36;;;;;;;;;;;;;;;;;;350138;28;936;-73
2022/05/28 00:10:46;;;;;;;;;;;;;;;;;;350183;28;876;-73
2022/05/28 00:10:57;;;;;;;;;;;;;;;;;;350162;28;1023;-73
2022/05/28 00:11:12;;;;;;;;;;;;;;;;;;349715;28;1627;-73
2022/05/28 00:11:33;;;;;;;;;;;;;;;;;;348751;28;929;-73
2022/05/28 00:11:44;;;;;;;;;;;;;;;;;;348797;28;852;-72
2022/05/28 00:11:54;;;;;;;;;;;;;;;;;;348648;28;1356;-73
2022/05/28 00:12:04;;;;;;;;;;;;;;;;;;348798;28;913;-73
2022/05/28 00:12:15;;;;;;;;;;;;;;;;;;348888;28;798;-73
2022/05/28 00:12:28;;;;;;;;;;;;;;;;;;348758;28;925;-73
2022/05/28 00:12:39;;;;;;;;;;;;;;;;;;348816;28;913;-73
2022/05/28 00:12:49;;;;;;;;;;;;;;;;;;348740;28;1346;-73
2022/05/28 00:13:00;;;;;;;;;;;;;;;;;;348736;28;920;-73
2022/05/28 00:13:10;;;;;;;;;;;;;;;;;;348752;28;996;-73
2022/05/28 00:13:21;;;;;;;;;;;;;;;;;;348810;28;924;-73
2022/05/28 00:13:31;;;;;;;;;;;;;;;;;;348755;28;917;-73
2022/05/28 00:13:42;;;;;;;;;;;;;;;;;;348774;28;842;-73
2022/05/28 00:13:52;;;;;;;;;;;;;;;;;;348835;28;960;-73
2022/05/28 00:14:03;;;;;;;;;;;;;;;;;;348679;28;960;-73
2022/05/28 00:14:13;;;;;;;;;;;;;;;;;;348823;28;813;-73
2022/05/28 00:14:23;;;;;;;;;;;;;;;;;;348825;28;917;-73
2022/05/28 00:14:34;;;;;;;;;;;;;;;;;;348739;28;995;-73
2022/05/28 00:14:44;;;;;;;;;;;;;;;;;;348812;28;933;-73
2022/05/28 00:14:55;;;;;;;;;;;;;;;;;;348763;28;1083;-73
2022/05/28 00:15:06;;;;;;;;;;;;;;;;;;348708;28;929;-73
2022/05/28 00:15:17;;;;;;;;;;;;;;;;;;348835;28;920;-73
2022/05/28 00:15:27;;;;;;;;;;;;;;;;;;348809;28;814;-73
2022/05/28 00:15:38;;;;;;;;;;;;;;;;;;348479;28;1389;-73
2022/05/28 00:15:48;;;;;;;;;;;;;;;;;;350212;28;964;-73
2022/05/28 00:15:59;;;;;;;;;;;;;;;;;;350109;28;1066;-73
2022/05/28 00:16:09;;;;;;;;;;;;;;;;;;350115;28;1015;-73
2022/05/28 00:16:20;;;;;;;;;;;;;;;;;;350181;28;968;-73
2022/05/28 00:16:30;;;;;;;;;;;;;;;;;;350121;28;937;-73
2022/05/28 00:16:41;;;;;;;;;;;;;;;;;;350140;28;817;-73
2022/05/28 00:16:51;;;;;;;;;;;;;;;;;;350217;28;865;-73
2022/05/28 00:17:02;;;;;;;;;;;;;;;;;;350151;28;921;-73
2022/05/28 00:17:12;;;;;;;;;;;;;;;;;;350159;28;960;-73
2022/05/28 00:17:22;;;;;;;;;;;;;;;;;;350119;28;975;-73
2022/05/28 00:17:33;;;;;;;;;;;;;;;;;;349731;28;1563;-73
2022/05/28 00:17:43;;;;;;;;;;;;;;;;;;349062;28;1363;-73
2022/05/28 00:17:53;;;;;;;;;;;;;;;;;;348783;28;759;-73
2022/05/28 00:18:03;;;;;;;;;;;;;;;;;;348737;28;1023;-73
2022/05/28 00:18:14;;;;;;;;;;;;;;;;;;348704;28;1129;-74
2022/05/28 00:18:24;;;;;;;;;;;;;;;;;;348832;28;1018;-73
2022/05/28 00:18:37;;;;;;;;;;;;;;;;;;348767;28;1127;-73
2022/05/28 00:18:49;;;;;;;;;;;;;;;;;;348857;28;782;-73
2022/05/28 00:19:00;;;;;;;;;;;;;;;;;;348797;28;960;-73
2022/05/28 00:19:10;;;;;;;;;;;;;;;;;;349213;28;1437;-73
2022/05/28 00:19:20;;;;;;;;;;;;;;;;;;350153;28;1914;-73
2022/05/28 00:19:31;;;;;;;;;;;;;;;;;;350179;28;964;-73
2022/05/28 00:19:41;;;;;;;;;;;;;;;;;;350183;28;1170;-73
2022/05/28 00:19:51;;;;;;;;;;;;;;;;;;350184;28;917;-73
2022/05/28 00:20:02;;;;;;;;;;;;;;;;;;350152;28;912;-73
2022/05/28 00:20:13;;;;;;;;;;;;;;;;;;350196;28;936;-73
2022/05/28 00:20:23;;;;;;;;;;;;;;;;;;350130;28;916;-73
2022/05/28 00:20:33;;;;;;;;;;;;;;;;;;350198;28;928;-73
2022/05/28 00:20:43;;;;;;;;;;;;;;;;;;350190;28;944;-73
2022/05/28 00:20:53;;;;;;;;;;;;;;;;;;350130;28;944;-73
2022/05/28 00:21:04;;;;;;;;;;;;;;;;;;350090;28;936;-73
2022/05/28 00:21:14;;;;;;;;;;;;;;;;;;350200;28;964;-73
2022/05/28 00:21:25;;;;;;;;;;;;;;;;;;350198;28;877;-73
2022/05/28 00:21:35;;;;;;;;;;;;;;;;;;350156;28;936;-73
2022/05/28 00:21:45;;;;;;;;;;;;;;;;;;350151;28;869;-73
2022/05/28 00:21:55;;;;;;;;;;;;;;;;;;350174;28;975;-73
2022/05/28 00:22:06;;;;;;;;;;;;;;;;;;350097;28;1024;-73
2022/05/28 00:22:16;;;;;;;;;;;;;;;;;;350112;28;1009;-73
2022/05/28 00:22:27;;;;;;;;;;;;;;;;;;350169;28;841;-73
2022/05/28 00:22:38;;;;;;;;;;;;;;;;;;350126;28;995;-73
2022/05/28 00:22:48;;;;;;;;;;;;;;;;;;350142;28;1004;-73
2022/05/28 00:22:59;;;;;;;;;;;;;;;;;;350153;28;921;-73
2022/05/28 00:23:09;;;;;;;;;;;;;;;;;;350147;28;852;-73
2022/05/28 00:23:19;;;;;;;;;;;;;;;;;;350173;28;956;-73
2022/05/28 00:23:30;;;;;;;;;;;;;;;;;;350128;28;987;-73
2022/05/28 00:23:41;;;;;;;;;;;;;;;;;;350223;28;841;-73
2022/05/28 00:23:51;;;;;;;;;;;;;;;;;;350202;28;890;-73
2022/05/28 00:24:01;;;;;;;;;;;;;;;;;;350124;28;892;-73
2022/05/28 00:24:12;;;;;;;;;;;;;;;;;;350159;28;841;-73
2022/05/28 00:24:22;;;;;;;;;;;;;;;;;;350077;28;901;-73
2022/05/28 00:24:32;;;;;;;;;;;;;;;;;;350178;28;928;-73
2022/05/28 00:24:42;;;;;;;;;;;;;;;;;;350080;28;1303;-73
2022/05/28 00:24:52;;;;;;;;;;;;;;;;;;350161;28;924;-73
2022/05/28 00:25:03;;;;;;;;;;;;;;;;;;350129;28;1028;-73
2022/05/28 00:25:14;;;;;;;;;;;;;;;;;;350035;28;898;-73
2022/05/28 00:25:25;;;;;;;;;;;;;;;;;;350166;28;877;-73
2022/05/28 00:25:35;;;;;;;;;;;;;;;;;;350151;28;933;-73
2022/05/28 00:25:47;;;;;;;;;;;;;;;;;;350174;28;932;-73
2022/05/28 00:25:57;;;;;;;;;;;;;;;;;;349476;28;1654;-73
2022/05/28 00:26:08;;;;;;;;;;;;;;;;;;350111;28;888;-73
2022/05/28 00:26:19;;;;;;;;;;;;;;;;;;350148;28;853;-73
2022/05/28 00:26:29;;;;;;;;;;;;;;;;;;350167;28;992;-73
2022/05/28 00:26:43;;;;;;;;;;;;;;;;;;350109;28;932;-73
2022/05/28 00:26:53;;;;;;;;;;;;;;;;;;350137;28;814;-73
2022/05/28 00:27:03;;;;;;;;;;;;;;;;;;350207;28;905;-73
2022/05/28 00:27:14;;;;;;;;;;;;;;;;;;350119;28;937;-73
2022/05/28 00:27:24;;;;;;;;;;;;;;;;;;350172;28;849;-73
2022/05/28 00:27:34;;;;;;;;;;;;;;;;;;350164;28;909;-73
2022/05/28 00:27:44;;;;;;;;;;;;;;;;;;350171;28;928;-73
2022/05/28 00:27:54;;;;;;;;;;;;;;;;;;350177;28;870;-74
2022/05/28 00:28:05;;;;;;;;;;;;;;;;;;350160;28;924;-73
2022/05/28 00:28:15;;;;;;;;;;;;;;;;;;350126;28;1036;-73
2022/05/28 00:28:25;;;;;;;;;;;;;;;;;;350158;28;928;-73
2022/05/28 00:28:36;;;;;;;;;;;;;;;;;;350038;28;892;-73
2022/05/28 00:28:46;;;;;;;;;;;;;;;;;;350206;28;881;-73
2022/05/28 00:28:56;;;;;;;;;;;;;;;;;;350162;28;1135;-73
2022/05/28 00:29:07;;;;;;;;;;;;;;;;;;350172;28;955;-73
2022/05/28 00:29:17;;;;;;;;;;;;;;;;;;350174;28;931;-72
2022/05/28 00:29:27;;;;;;;;;;;;;;;;;;350077;28;1022;-74
2022/05/28 00:29:37;;;;;;;;;;;;;;;;;;350159;28;979;-73
2022/05/28 00:29:48;;;;;;;;;;;;;;;;;;350132;28;1019;-73
2022/05/28 00:29:58;;;;;;;;;;;;;;;;;;350158;28;991;-73
2022/05/28 00:30:09;;;;;;;;;;;;;;;;;;350136;28;1054;-73
2022/05/28 00:30:20;;;;;;;;;;;;;;;;;;348411;28;1607;-73
2022/05/28 00:30:30;;;;;;;;;;;;;;;;;;349489;28;1190;-73
2022/05/28 00:30:40;;;;;;;;;;;;;;;;;;350025;28;1039;-73
2022/05/28 00:30:50;;;;;;;;;;;;;;;;;;350179;28;825;-73
2022/05/28 00:31:01;;;;;;;;;;;;;;;;;;350115;28;933;-74
2022/05/28 00:31:11;;;;;;;;;;;;;;;;;;348717;28;1475;-73
2022/05/28 00:31:21;;;;;;;;;;;;;;;;;;348722;28;1118;-73
2022/05/28 00:31:31;;;;;;;;;;;;;;;;;;348267;28;1493;-73
2022/05/28 00:31:42;;;;;;;;;;;;;;;;;;348744;28;1557;-73
2022/05/28 00:31:53;;;;;;;;;;;;;;;;;;350184;28;763;-73
2022/05/28 00:32:04;;;;;;;;;;;;;;;;;;350211;28;924;-73
2022/05/28 00:32:14;;;;;;;;;;;;;;;;;;350102;28;991;-73
2022/05/28 00:32:24;;;;;;;;;;;;;;;;;;350126;28;902;-73
2022/05/28 00:32:34;;;;;;;;;;;;;;;;;;350149;28;936;-73
2022/05/28 00:32:45;;;;;;;;;;;;;;;;;;350030;28;908;-73
2022/05/28 00:32:55;;;;;;;;;;;;;;;;;;350192;28;868;-73
2022/05/28 00:33:05;;;;;;;;;;;;;;;;;;350162;28;920;-73
2022/05/28 00:33:16;;;;;;;;;;;;;;;;;;350127;28;951;-73
2022/05/28 00:33:27;;;;;;;;;;;;;;;;;;350105;28;1067;-73
2022/05/28 00:33:37;;;;;;;;;;;;;;;;;;350196;28;1821;-73
2022/05/28 00:33:47;;;;;;;;;;;;;;;;;;350100;28;936;-74
2022/05/28 00:33:58;;;;;;;;;;;;;;;;;;350141;28;900;-73
2022/05/28 00:34:08;;;;;;;;;;;;;;;;;;350125;28;1065;-73
2022/05/28 00:34:18;;;;;;;;;;;;;;;;;;350069;28;972;-73
2022/05/28 00:34:29;;;;;;;;;;;;;;;;;;350120;28;782;-73
2022/05/28 00:34:40;;;;;;;;;;;;;;;;;;350207;28;979;-73
2022/05/28 00:34:50;;;;;;;;;;;;;;;;;;350133;28;809;-73
2022/05/28 00:35:01;;;;;;;;;;;;;;;;;;350127;28;868;-73
2022/05/28 00:35:13;;;;;;;;;;;;;;;;;;350143;28;980;-73
2022/05/28 00:35:23;;;;;;;;;;;;;;;;;;350069;28;928;-73
2022/05/28 00:35:33;;;;;;;;;;;;;;;;;;350146;28;853;-73
2022/05/28 00:35:44;;;;;;;;;;;;;;;;;;350126;28;1204;-73
2022/05/28 00:35:54;;;;;;;;;;;;;;;;;;350072;28;897;-73
2022/05/28 00:36:06;;;;;;;;;;;;;;;;;;350137;28;917;-73
2022/05/28 00:36:17;;;;;;;;;;;;;;;;;;350189;28;781;-74
2022/05/28 00:36:27;;;;;;;;;;;;;;;;;;350100;28;1015;-73
2022/05/28 00:36:37;;;;;;;;;;;;;;;;;;350095;28;991;-73
2022/05/28 00:36:48;;;;;;;;;;;;;;;;;;350112;28;1001;-73
2022/05/28 00:36:58;;;;;;;;;;;;;;;;;;350111;28;1007;-73
2022/05/28 00:37:08;;;;;;;;;;;;;;;;;;350085;28;1008;-74
2022/05/28 00:37:18;;;;;;;;;;;;;;;;;;350094;28;874;-73
2022/05/28 00:37:28;;;;;;;;;;;;;;;;;;349937;28;998;-74
2022/05/28 00:37:39;;;;;;;;;;;;;;;;;;350159;28;869;-73
2022/05/28 00:37:49;;;;;;;;;;;;;;;;;;350107;28;909;-74
2022/05/28 00:37:59;;;;;;;;;;;;;;;;;;350103;28;968;-73
2022/05/28 00:38:09;;;;;;;;;;;;;;;;;;349984;28;1017;-73
2022/05/28 00:38:19;;;;;;;;;;;;;;;;;;350128;28;1004;-73
2022/05/28 00:38:30;;;;;;;;;;;;;;;;;;350144;28;869;-73
2022/05/28 00:38:41;;;;;;;;;;;;;;;;;;350062;28;921;-73
2022/05/28 00:38:51;;;;;;;;;;;;;;;;;;350124;28;1003;-73
2022/05/28 00:39:01;;;;;;;;;;;;;;;;;;350055;28;901;-73
2022/05/28 00:39:11;;;;;;;;;;;;;;;;;;350119;28;917;-73
2022/05/28 00:39:22;;;;;;;;;;;;;;;;;;350019;28;1902;-73
2022/05/28 00:39:32;;;;;;;;;;;;;;;;;;350075;28;901;-73
2022/05/28 00:39:42;;;;;;;;;;;;;;;;;;350136;28;968;-73
2022/05/28 00:39:52;;;;;;;;;;;;;;;;;;350158;28;786;-73
2022/05/28 00:40:04;;;;;;;;;;;;;;;;;;350036;28;1024;-73
2022/05/28 00:40:17;;;;;;;;;;;;;;;;;;350138;28;953;-73
2022/05/28 00:40:27;;;;;;;;;;;;;;;;;;350159;28;983;-73
2022/05/28 00:40:38;;;;;;;;;;;;;;;;;;349998;28;1651;-73
2022/05/28 00:40:49;;;;;;;;;;;;;;;;;;348701;28;972;-74
2022/05/28 00:41:00;;;;;;;;;;;;;;;;;;348704;28;1021;-73
2022/05/28 00:41:10;;;;;;;;;;;;;;;;;;348790;28;925;-73
2022/05/28 00:41:21;;;;;;;;;;;;;;;;;;348767;28;881;-73
2022/05/28 00:41:32;;;;;;;;;;;;;;;;;;348684;28;917;-73
2022/05/28 00:41:43;;;;;;;;;;;;;;;;;;348812;28;916;-73
2022/05/28 00:41:55;;;;;;;;;;;;;;;;;;348788;28;1080;-73
2022/05/28 00:42:05;;;;;;;;;;;;;;;;;;348747;28;877;-73
2022/05/28 00:42:16;;;;;;;;;;;;;;;;;;348783;28;928;-73
2022/05/28 00:42:26;;;;;;;;;;;;;;;;;;348808;28;884;-73
2022/05/28 00:42:36;;;;;;;;;;;;;;;;;;348767;28;798;-73
2022/05/28 00:42:47;;;;;;;;;;;;;;;;;;348699;28;1008;-73
2022/05/28 00:42:58;;;;;;;;;;;;;;;;;;348772;28;936;-73
2022/05/28 00:43:08;;;;;;;;;;;;;;;;;;348726;28;975;-73
2022/05/28 00:43:19;;;;;;;;;;;;;;;;;;348596;28;1019;-73
2022/05/28 00:43:30;;;;;;;;;;;;;;;;;;348710;28;1048;-73
2022/05/28 00:43:41;;;;;;;;;;;;;;;;;;348685;28;1041;-73
2022/05/28 00:43:51;;;;;;;;;;;;;;;;;;348805;28;917;-73
2022/05/28 00:44:03;;;;;;;;;;;;;;;;;;348768;28;913;-73
2022/05/28 00:44:13;;;;;;;;;;;;;;;;;;348701;28;1105;-73
2022/05/28 00:44:24;;;;;;;;;;;;;;;;;;348600;28;1155;-73
2022/05/28 00:44:34;;;;;;;;;;;;;;;;;;348788;28;782;-73
2022/05/28 00:44:44;;;;;;;;;;;;;;;;;;348784;28;929;-73
2022/05/28 00:44:54;;;;;;;;;;;;;;;;;;348597;28;1163;-73
2022/05/28 00:45:05;;;;;;;;;;;;;;;;;;348818;28;774;-74
2022/05/28 00:45:16;;;;;;;;;;;;;;;;;;348658;28;948;-73
2022/05/28 00:45:27;;;;;;;;;;;;;;;;;;348830;28;932;-73
2022/05/28 00:45:37;;;;;;;;;;;;;;;;;;348697;28;912;-74
2022/05/28 00:45:51;;;;;;;;;;;;;;;;;;348764;28;944;-73
2022/05/28 00:46:03;;;;;;;;;;;;;;;;;;348698;28;1448;-73
2022/05/28 00:46:16;;;;;;;;;;;;;;;;;;348775;28;825;-73
2022/05/28 00:46:27;;;;;;;;;;;;;;;;;;348792;28;924;-73
2022/05/28 00:46:37;;;;;;;;;;;;;;;;;;348765;28;920;-73
2022/05/28 00:46:49;;;;;;;;;;;;;;;;;;348683;28;949;-73
2022/05/28 00:46:59;;;;;;;;;;;;;;;;;;348792;28;983;-73
2022/05/28 00:47:10;;;;;;;;;;;;;;;;;;348744;28;933;-73
2022/05/28 00:47:20;;;;;;;;;;;;;;;;;;348711;28;841;-74
2022/05/28 00:47:30;;;;;;;;;;;;;;;;;;348762;28;1004;-73
2022/05/28 00:47:46;;;;;;;;;;;;;;;;;;348737;28;937;-73
2022/05/28 00:47:58;;;;;;;;;;;;;;;;;;348748;28;952;-73
2022/05/28 00:48:09;;;;;;;;;;;;;;;;;;348758;28;925;-73
2022/05/28 00:48:24;;;;;;;;;;;;;;;;;;348781;28;908;-72
2022/05/28 00:48:35;;;;;;;;;;;;;;;;;;348731;28;953;-73
2022/05/28 00:48:47;;;;;;;;;;;;;;;;;;348588;28;1021;-73
2022/05/28 00:49:02;;;;;;;;;;;;;;;;;;348762;28;932;-73
2022/05/28 00:49:21;;;;;;;;;;;;;;;;;;348706;28;1047;-73
2022/05/28 00:49:32;;;;;;;;;;;;;;;;;;348939;28;972;-73
2022/05/28 00:49:43;;;;;;;;;;;;;;;;;;348664;28;912;-73
2022/05/28 00:49:53;;;;;;;;;;;;;;;;;;348824;28;877;-73
2022/05/28 00:50:04;;;;;;;;;;;;;;;;;;348847;28;913;-73
2022/05/28 00:50:16;;;;;;;;;;;;;;;;;;348657;28;1033;-73
2022/05/28 00:50:26;;;;;;;;;;;;;;;;;;348783;28;972;-73
2022/05/28 00:50:38;;;;;;;;;;;;;;;;;;348795;28;849;-73
2022/05/28 00:50:49;;;;;;;;;;;;;;;;;;348697;28;960;-73
2022/05/28 00:51:03;;;;;;;;;;;;;;;;;;348786;28;928;-73
2022/05/28 00:51:17;;;;;;;;;;;;;;;;;;349826;28;1568;-73
2022/05/28 00:51:33;;;;;;;;;;;;;;;;;;348685;28;858;-73
2022/05/28 00:51:47;;;;;;;;;;;;;;;;;;348779;28;991;-73
2022/05/28 00:51:59;;;;;;;;;;;;;;;;;;348757;28;988;-73
2022/05/28 00:52:10;;;;;;;;;;;;;;;;;;348707;28;931;-73
2022/05/28 00:52:22;;;;;;;;;;;;;;;;;;348783;28;1015;-73
2022/05/28 00:52:33;;;;;;;;;;;;;;;;;;348772;28;783;-73
2022/05/28 00:52:44;;;;;;;;;;;;;;;;;;348725;28;920;-73
2022/05/28 00:52:55;;;;;;;;;;;;;;;;;;348759;28;925;-74
2022/05/28 00:53:06;;;;;;;;;;;;;;;;;;348699;28;1041;-73
2022/05/28 00:53:17;;;;;;;;;;;;;;;;;;348738;28;972;-73
2022/05/28 00:53:27;;;;;;;;;;;;;;;;;;348745;28;1008;-74
2022/05/28 00:53:37;;;;;;;;;;;;;;;;;;348639;28;992;-73
2022/05/28 00:53:48;;;;;;;;;;;;;;;;;;348728;28;960;-73
2022/05/28 00:54:00;;;;;;;;;;;;;;;;;;348755;28;995;-73
2022/05/28 00:54:12;;;;;;;;;;;;;;;;;;348735;28;905;-73
2022/05/28 00:54:22;;;;;;;;;;;;;;;;;;348706;28;980;-73
2022/05/28 00:54:38;;;;;;;;;;;;;;;;;;348735;28;778;-74
2022/05/28 00:54:48;;;;;;;;;;;;;;;;;;348736;28;963;-73
2022/05/28 00:54:59;;;;;;;;;;;;;;;;;;348675;28;917;-73
2022/05/28 00:55:09;;;;;;;;;;;;;;;;;;348740;28;862;-73
2022/05/28 00:55:19;;;;;;;;;;;;;;;;;;348715;28;1031;-73
2022/05/28 00:55:32;;;;;;;;;;;;;;;;;;348735;28;960;-74
2022/05/28 00:55:42;;;;;;;;;;;;;;;;;;348678;28;929;-74
2022/05/28 00:55:52;;;;;;;;;;;;;;;;;;348674;28;1000;-73
2022/05/28 00:56:03;;;;;;;;;;;;;;;;;;348730;28;948;-73
2022/05/28 00:56:13;;;;;;;;;;;;;;;;;;348769;28;909;-73
2022/05/28 00:56:24;;;;;;;;;;;;;;;;;;348721;28;913;-73
2022/05/28 00:56:35;;;;;;;;;;;;;;;;;;348717;28;877;-74
2022/05/28 00:56:45;;;;;;;;;;;;;;;;;;348759;28;917;-73
2022/05/28 00:56:56;;;;;;;;;;;;;;;;;;348735;28;928;-73
2022/05/28 00:57:07;;;;;;;;;;;;;;;;;;348775;28;983;-73
2022/05/28 00:57:19;;;;;;;;;;;;;;;;;;348752;28;924;-73
2022/05/28 00:57:29;;;;;;;;;;;;;;;;;;348736;28;1775;-73
2022/05/28 00:57:40;;;;;;;;;;;;;;;;;;348764;28;924;-73
2022/05/28 00:57:51;;;;;;;;;;;;;;;;;;348701;28;952;-73
2022/05/28 00:58:03;;;;;;;;;;;;;;;;;;348772;28;991;-73
2022/05/28 00:58:14;;;;;;;;;;;;;;;;;;348734;28;868;-74
2022/05/28 00:58:25;;;;;;;;;;;;;;;;;;348790;28;972;-73
2022/05/28 00:58:36;;;;;;;;;;;;;;;;;;348787;28;972;-73
2022/05/28 00:58:46;;;;;;;;;;;;;;;;;;348760;28;949;-73
2022/05/28 00:58:58;;;;;;;;;;;;;;;;;;348738;28;917;-73
2022/05/28 00:59:09;;;;;;;;;;;;;;;;;;348717;28;941;-73
2022/05/28 00:59:19;;;;;;;;;;;;;;;;;;348791;28;767;-74
2022/05/28 00:59:29;;;;;;;;;;;;;;;;;;348698;28;1910;-74
2022/05/28 00:59:40;;;;;;;;;;;;;;;;;;348786;28;953;-73
2022/05/28 00:59:50;;;;;;;;;;;;;;;;;;348776;28;804;-73
2022/05/28 01:00:00;;;;;;;;;;;;;;;;;;348646;28;802;-73
2022/05/28 01:00:15;;;;;;;;;;;;;;;;;;348780;28;861;-73
2022/05/28 01:00:25;;;;;;;;;;;;;;;;;;348667;28;978;-73
2022/05/28 01:00:36;;;;;;;;;;;;;;;;;;348736;28;1827;-73
2022/05/28 01:00:47;;;;;;;;;;;;;;;;;;348671;28;1060;-73
2022/05/28 01:00:57;;;;;;;;;;;;;;;;;;348673;28;933;-73
2022/05/28 01:01:08;;;;;;;;;;;;;;;;;;348790;28;937;-73
2022/05/28 01:01:23;;;;;;;;;;;;;;;;;;348726;28;992;-73
2022/05/28 01:01:34;;;;;;;;;;;;;;;;;;348708;28;1011;-73
2022/05/28 01:01:44;;;;;;;;;;;;;;;;;;348454;28;1646;-73
2022/05/28 01:01:58;;;;;;;;;;;;;;;;;;350005;28;936;-73
2022/05/28 01:02:17;;;;;;;;;;;;;;;;;;350111;28;810;-73
2022/05/28 01:02:39;;;;;;;;;;;;;;;;;;350053;28;909;-73
2022/05/28 01:02:57;;;;;;;;;;;;;;;;;;349886;28;1332;-73
2022/05/28 01:03:20;;;;;;;;;;;;;;;;;;348726;28;1013;-73
2022/05/28 01:03:35;;;;;;;;;;;;;;;;;;348693;28;960;-73
2022/05/28 01:03:54;;;;;;;;;;;;;;;;;;348781;28;913;-73
2022/05/28 01:04:15;;;;;;;;;;;;;;;;;;348673;28;917;-73
2022/05/28 01:04:35;;;;;;;;;;;;;;;;;;348711;28;932;-73
2022/05/28 01:04:45;;;;;;;;;;;;;;;;;;348746;28;924;-73
2022/05/28 01:04:59;;;;;;;;;;;;;;;;;;348681;28;997;-73
2022/05/28 01:05:12;;;;;;;;;;;;;;;;;;348692;28;957;-73
2022/05/28 01:05:34;;;;;;;;;;;;;;;;;;348512;28;953;-73
2022/05/28 01:06:03;;;;;;;;;;;;;;;;;;348476;28;1079;-73
2022/05/28 01:06:24;;;;;;;;;;;;;;;;;;348622;28;933;-73
2022/05/28 01:06:41;;;;;;;;;;;;;;;;;;348762;28;928;-73
2022/05/28 01:06:58;;;;;;;;;;;;;;;;;;348727;28;805;-73
2022/05/28 01:07:08;;;;;;;;;;;;;;;;;;348711;28;945;-73
2022/05/28 01:07:26;;;;;;;;;;;;;;;;;;348726;28;929;-73
2022/05/28 01:07:39;;;;;;;;;;;;;;;;;;348666;28;1118;-73
2022/05/28 01:07:52;;;;;;;;;;;;;;;;;;348737;28;980;-73
2022/05/28 01:08:10;;;;;;;;;;;;;;;;;;348700;28;850;-73
2022/05/28 01:08:27;;;;;;;;;;;;;;;;;;348777;28;782;-73
2022/05/28 01:08:45;;;;;;;;;;;;;;;;;;348711;28;961;-73
2022/05/28 01:09:03;;;;;;;;;;;;;;;;;;348745;28;842;-73
2022/05/28 01:09:20;;;;;;;;;;;;;;;;;;348713;28;877;-73
2022/05/28 01:09:40;;;;;;;;;;;;;;;;;;348713;28;983;-74
2022/05/28 01:10:09;;;;;;;;;;;;;;;;;;348720;28;920;-73
2022/05/28 01:10:21;;;;;;;;;;;;;;;;;;348749;28;1727;-73
2022/05/28 01:10:38;;;;;;;;;;;;;;;;;;348717;28;976;-73
2022/05/28 01:11:00;;;;;;;;;;;;;;;;;;348722;28;968;-73
2022/05/28 01:11:19;;;;;;;;;;;;;;;;;;348713;28;933;-72
2022/05/28 01:11:29;;;;;;;;;;;;;;;;;;348736;28;921;-73
2022/05/28 01:11:44;;;;;;;;;;;;;;;;;;348734;28;949;-73
2022/05/28 01:12:03;;;;;;;;;;;;;;;;;;348758;28;854;-73
2022/05/28 01:12:15;;;;;;;;;;;;;;;;;;348657;28;972;-72
2022/05/28 01:12:44;;;;;;;;;;;;;;;;;;348723;28;921;-73
2022/05/28 01:13:06;;;;;;;;;;;;;;;;;;348653;28;961;-73
2022/05/28 01:13:22;;;;;;;;;;;;;;;;;;348741;28;865;-72
2022/05/28 01:13:38;;;;;;;;;;;;;;;;;;348735;28;1023;-72
2022/05/28 01:13:57;;;;;;;;;;;;;;;;;;348674;28;1146;-73
2022/05/28 01:14:11;;;;;;;;;;;;;;;;;;348744;28;924;-73
2022/05/28 01:14:28;;;;;;;;;;;;;;;;;;348673;28;798;-73
2022/05/28 01:14:46;;;;;;;;;;;;;;;;;;348701;28;969;-73
2022/05/28 01:15:17;;;;;;;;;;;;;;;;;;348746;28;917;-73
2022/05/28 01:15:30;;;;;;;;;;;;;;;;;;348697;28;1011;-72
2022/05/28 01:15:46;;;;;;;;;;;;;;;;;;348760;28;929;-73
2022/05/28 01:16:07;;;;;;;;;;;;;;;;;;348707;28;1035;-73
2022/05/28 01:16:27;;;;;;;;;;;;;;;;;;348697;28;790;-73
2022/05/28 01:16:39;;;;;;;;;;;;;;;;;;348664;28;996;-73
2022/05/28 01:16:49;;;;;;;;;;;;;;;;;;348739;28;865;-73
2022/05/28 01:17:04;;;;;;;;;;;;;;;;;;348724;28;810;-73
2022/05/28 01:17:18;;;;;;;;;;;;;;;;;;348723;28;1003;-73
2022/05/28 01:17:34;;;;;;;;;;;;;;;;;;348710;28;874;-73
2022/05/28 01:17:58;;;;;;;;;;;;;;;;;;348743;28;826;-73
2022/05/28 01:18:21;;;;;;;;;;;;;;;;;;348720;28;941;-73
2022/05/28 01:18:41;;;;;;;;;;;;;;;;;;348680;28;925;-73
2022/05/28 01:18:52;;;;;;;;;;;;;;;;;;348682;28;952;-73
2022/05/28 01:19:20;;;;;;;;;;;;;;;;;;348717;28;925;-73
2022/05/28 01:19:35;;;;;;;;;;;;;;;;;;348576;28;1922;-72
2022/05/28 01:19:51;;;;;;;;;;;;;;;;;;348727;28;870;-73
2022/05/28 01:20:04;;;;;;;;;;;;;;;;;;349334;28;1690;-73
2022/05/28 01:20:18;;;;;;;;;;;;;;;;;;350053;28;921;-72
2022/05/28 01:20:31;;;;;;;;;;;;;;;;;;350084;28;940;-73
2022/05/28 01:20:45;;;;;;;;;;;;;;;;;;350056;28;1058;-73
2022/05/28 01:20:59;;;;;;;;;;;;;;;;;;350027;28;1008;-73
2022/05/28 01:21:15;;;;;;;;;;;;;;;;;;350100;28;999;-73
2022/05/28 01:21:25;;;;;;;;;;;;;;;;;;349962;28;1054;-73
2022/05/28 01:21:44;;;;;;;;;;;;;;;;;;350053;28;917;-73
2022/05/28 01:22:02;;;;;;;;;;;;;;;;;;350128;28;809;-73
2022/05/28 01:22:18;;;;;;;;;;;;;;;;;;350107;28;988;-73
2022/05/28 01:22:28;;;;;;;;;;;;;;;;;;350101;28;936;-73
2022/05/28 01:22:39;;;;;;;;;;;;;;;;;;350110;28;885;-73
2022/05/28 01:22:57;;;;;;;;;;;;;;;;;;350054;28;979;-73
2022/05/28 01:23:26;;;;;;;;;;;;;;;;;;348901;28;1411;-73
2022/05/28 01:23:44;;;;;;;;;;;;;;;;;;350119;28;999;-73
2022/05/28 01:23:55;;;;;;;;;;;;;;;;;;350025;28;993;-73
2022/05/28 01:24:08;;;;;;;;;;;;;;;;;;350119;28;941;-73
2022/05/28 01:24:27;;;;;;;;;;;;;;;;;;350134;28;845;-74
2022/05/28 01:24:43;;;;;;;;;;;;;;;;;;350011;28;1248;-74
2022/05/28 01:25:03;;;;;;;;;;;;;;;;;;350091;28;809;-73
2022/05/28 01:25:28;;;;;;;;;;;;;;;;;;350081;28;908;-73
2022/05/28 01:25:57;;;;;;;;;;;;;;;;;;350051;28;909;-73
2022/05/28 01:26:16;;;;;;;;;;;;;;;;;;350032;28;1000;-73
2022/05/28 01:26:26;;;;;;;;;;;;;;;;;;350032;28;975;-73
2022/05/28 01:26:58;;;;;;;;;;;;;;;;;;350093;28;999;-73
2022/05/28 01:27:11;;;;;;;;;;;;;;;;;;350123;28;932;-73
2022/05/28 01:27:30;;;;;;;;;;;;;;;;;;349996;28;1063;-73